createdAt,value
2023-04-03T00:00:02.049Z,5.47
2023-04-03T00:02:37.235Z,5.30
2023-04-03T00:05:11.213Z,4.25
2023-04-03T00:07:44.401Z,9.70
2023-04-03T00:10:18.021Z,4.85
2023-04-03T00:12:51.845Z,3.10
2023-04-03T00:15:25.342Z,9.95
2023-04-03T00:17:59.215Z,6.50
2023-04-03T00:20:32.387Z,4.87
2023-04-03T00:23:05.920Z,5.10
2023-04-03T00:25:39.582Z,5.40
2023-04-03T00:28:13.168Z,5.17
2023-04-03T00:30:46.869Z,11.80
2023-04-03T00:33:25.763Z,3.50
2023-04-03T00:35:59.693Z,4.50
2023-04-03T00:38:34.668Z,6.92
2023-04-03T00:41:07.702Z,3.87
2023-04-03T00:43:41.036Z,5.73
2023-04-03T00:46:14.089Z,5.35
2023-04-03T00:48:51.514Z,5.97
2023-04-03T00:51:26.830Z,5.58
2023-04-03T00:54:03.510Z,5.12
2023-04-03T00:56:39.211Z,5.25
2023-04-03T00:59:19.284Z,5.85
2023-04-03T01:01:53.184Z,6.35
2023-04-03T01:04:37.480Z,9.17
2023-04-03T01:07:20.900Z,4.20
2023-04-03T01:09:57.994Z,6.50
2023-04-03T01:12:38.135Z,6.00
2023-04-03T01:15:19.220Z,4.80
2023-04-03T01:17:58.494Z,6.17
2023-04-03T01:20:55.730Z,5.33
2023-04-03T01:23:36.212Z,4.67
2023-04-03T01:26:11.046Z,4.60
2023-04-03T01:28:43.964Z,7.15
2023-04-03T01:31:35.949Z,7.30
2023-04-03T01:34:09.146Z,6.37
2023-04-03T01:36:42.575Z,4.92
2023-04-03T01:39:16.905Z,5.47
2023-04-03T01:41:50.856Z,4.42
2023-04-03T01:44:25.654Z,5.70
2023-04-03T01:46:58.719Z,5.08
2023-04-03T01:52:05.491Z,5.58
2023-04-03T01:54:38.649Z,4.80
2023-04-03T01:57:12.195Z,4.95
2023-04-03T01:59:45.830Z,7.15
2023-04-03T02:02:18.996Z,6.42
2023-04-03T02:04:52.106Z,7.42
2023-04-03T02:07:25.886Z,4.50
2023-04-03T02:09:58.786Z,7.97
2023-04-03T02:12:31.943Z,7.97
2023-04-03T02:15:05.969Z,7.42
2023-04-03T02:17:39.192Z,8.18
2023-04-03T02:20:13.029Z,5.97
2023-04-03T02:22:46.559Z,7.50
2023-04-03T02:25:19.519Z,8.18
2023-04-03T02:27:53.031Z,7.55
2023-04-03T02:30:26.644Z,6.50
2023-04-03T02:33:00.161Z,6.95
2023-04-03T02:35:34.219Z,6.03
2023-04-03T02:38:07.518Z,7.50
2023-04-03T02:40:41.277Z,8.18
2023-04-03T02:43:14.321Z,12.18
2023-04-03T02:45:48.487Z,6.28
2023-04-03T02:48:22.668Z,5.37
2023-04-03T02:50:55.966Z,8.53
2023-04-03T02:53:28.860Z,6.58
2023-04-03T02:56:02.337Z,6.95
2023-04-03T02:58:35.751Z,8.40
2023-04-03T03:01:10.396Z,10.58
2023-04-03T03:03:43.746Z,7.75
2023-04-03T03:06:19.012Z,9.15
2023-04-03T03:08:52.700Z,7.55
2023-04-03T03:11:26.636Z,6.95
2023-04-03T03:14:00.838Z,8.00
2023-04-03T03:16:34.678Z,11.65
2023-04-03T03:19:08.010Z,9.30
2023-04-03T03:21:41.825Z,10.15
2023-04-03T03:24:16.823Z,7.83
2023-04-03T03:26:49.614Z,10.20
2023-04-03T03:29:23.541Z,9.10
2023-04-03T03:31:57.024Z,8.65
2023-04-03T03:34:30.583Z,10.53
2023-04-03T03:37:03.537Z,10.60
2023-04-03T03:39:37.083Z,6.53
2023-04-03T03:42:10.099Z,11.22
2023-04-03T03:44:43.795Z,8.73
2023-04-03T03:47:16.948Z,10.18
2023-04-03T03:49:49.915Z,10.93
2023-04-03T03:52:23.101Z,11.20
2023-04-03T03:54:56.389Z,12.50
2023-04-03T03:57:30.070Z,10.20
2023-04-03T04:02:38.078Z,9.25
2023-04-03T04:05:11.504Z,8.37
2023-04-03T04:07:44.897Z,13.40
2023-04-03T04:10:18.966Z,13.85
2023-04-03T04:12:52.628Z,12.65
2023-04-03T04:15:28.289Z,10.68
2023-04-03T04:20:33.973Z,10.95
2023-04-03T04:23:07.201Z,18.13
2023-04-03T04:25:40.661Z,17.97
2023-04-03T04:28:13.812Z,14.87
2023-04-03T04:30:47.543Z,14.07
2023-04-03T04:33:21.000Z,15.80
2023-04-03T04:35:55.043Z,15.23
2023-04-03T04:38:28.570Z,18.55
2023-04-03T04:41:02.425Z,15.85
2023-04-03T04:43:36.498Z,15.18
2023-04-03T04:46:14.117Z,12.43
2023-04-03T04:48:49.611Z,16.07
2023-04-03T04:51:23.409Z,12.25
2023-04-03T04:53:56.415Z,15.65
2023-04-03T04:56:29.442Z,13.25
2023-04-03T04:59:03.364Z,15.38
2023-04-03T05:01:37.076Z,18.40
2023-04-03T05:04:14.036Z,16.52
2023-04-03T05:06:47.777Z,17.25
2023-04-03T05:09:22.568Z,17.17
2023-04-03T05:11:57.526Z,19.55
2023-04-03T05:14:32.662Z,21.75
2023-04-03T05:17:07.264Z,23.12
2023-04-03T05:19:42.710Z,29.57
2023-04-03T05:22:16.349Z,19.07
2023-04-03T05:24:50.825Z,26.57
2023-04-03T05:27:25.467Z,22.67
2023-04-03T05:30:00.681Z,24.65
2023-04-03T05:32:36.248Z,31.75
2023-04-03T05:35:11.358Z,24.77
2023-04-03T05:37:45.569Z,26.97
2023-04-03T05:40:19.930Z,23.90
2023-04-03T05:42:54.813Z,23.30
2023-04-03T05:45:28.070Z,23.40
2023-04-03T05:48:03.709Z,26.10
2023-04-03T05:50:39.121Z,20.88
2023-04-03T05:53:16.961Z,19.45
2023-04-03T05:55:50.407Z,21.62
2023-04-03T05:58:24.460Z,18.37
2023-04-03T06:00:58.665Z,17.63
2023-04-03T06:03:32.387Z,18.55
2023-04-03T06:06:07.146Z,14.23
2023-04-03T06:08:41.588Z,14.85
2023-04-03T06:11:14.704Z,23.42
2023-04-03T06:13:48.266Z,18.80
2023-04-03T06:16:23.511Z,17.90
2023-04-03T06:18:57.482Z,12.15
2023-04-03T06:21:30.622Z,12.82
2023-04-03T06:24:04.835Z,11.63
2023-04-03T06:26:38.645Z,10.88
2023-04-03T06:29:12.117Z,8.18
2023-04-03T06:31:45.302Z,7.30
2023-04-03T06:34:19.390Z,7.12
2023-04-03T06:36:52.495Z,6.92
2023-04-03T06:39:28.002Z,7.83
2023-04-03T06:42:01.382Z,7.75
2023-04-03T06:44:37.068Z,5.70
2023-04-03T06:47:17.917Z,7.10
2023-04-03T06:49:50.900Z,5.33
2023-04-03T06:52:26.445Z,5.75
2023-04-03T06:55:01.642Z,6.78
2023-04-03T07:00:09.920Z,6.22
2023-04-03T07:02:44.027Z,7.17
2023-04-03T07:05:17.224Z,9.78
2023-04-03T07:07:51.630Z,10.43
2023-04-03T07:10:24.700Z,10.55
2023-04-03T07:12:57.778Z,10.67
2023-04-03T07:15:31.467Z,8.50
2023-04-03T07:18:05.909Z,8.53
2023-04-03T07:20:40.896Z,13.68
2023-04-03T07:23:13.899Z,12.25
2023-04-03T07:25:49.649Z,11.53
2023-04-03T07:28:24.469Z,17.50
2023-04-03T07:31:09.799Z,19.15
2023-04-03T07:33:43.570Z,13.05
2023-04-03T07:36:20.625Z,15.45
2023-04-03T07:38:53.654Z,15.35
2023-04-03T07:41:27.246Z,16.67
2023-04-03T07:44:00.479Z,11.70
2023-04-03T07:46:33.975Z,17.10
2023-04-03T07:49:07.060Z,11.97
2023-04-03T07:51:41.185Z,13.70
2023-04-03T07:56:47.870Z,15.13
2023-04-03T07:59:21.425Z,12.35
2023-04-03T08:01:54.350Z,17.67
2023-04-03T08:04:28.386Z,10.75
2023-04-03T08:07:01.735Z,17.17
2023-04-03T08:09:35.244Z,18.45
2023-04-03T08:12:08.276Z,11.50
2023-04-03T08:14:41.927Z,12.88
2023-04-03T08:17:16.178Z,12.98
2023-04-03T08:19:49.270Z,12.43
2023-04-03T08:22:24.140Z,10.60
2023-04-03T08:24:59.527Z,10.15
2023-04-03T08:27:33.052Z,11.35
2023-04-03T08:30:07.827Z,10.88
2023-04-03T08:32:42.828Z,11.50
2023-04-03T08:35:16.453Z,8.70
2023-04-03T08:37:49.527Z,10.15
2023-04-03T08:40:23.014Z,12.47
2023-04-03T08:43:07.459Z,7.60
2023-04-03T08:45:53.903Z,16.90
2023-04-03T08:48:44.822Z,9.73
2023-04-03T08:51:21.477Z,10.88
2023-04-03T08:54:02.855Z,13.60
2023-04-03T08:56:36.979Z,9.40
2023-04-03T08:59:13.717Z,13.70
2023-04-03T09:01:47.720Z,6.83
2023-04-03T09:04:21.346Z,8.43
2023-04-03T09:06:58.826Z,10.35
2023-04-03T09:12:53.797Z,6.25
2023-04-03T09:15:38.349Z,4.22
2023-04-03T09:18:19.510Z,4.08
2023-04-03T09:21:27.083Z,3.67
2023-04-03T09:24:01.845Z,3.83
2023-04-03T09:26:47.713Z,9.60
2023-04-03T09:29:26.090Z,4.97
2023-04-03T09:32:05.045Z,7.95
2023-04-03T09:34:40.188Z,5.08
2023-04-03T09:37:13.199Z,5.50
2023-04-03T09:39:58.202Z,9.15
2023-04-03T09:42:33.463Z,5.15
2023-04-03T09:45:12.412Z,6.95
2023-04-03T09:47:46.146Z,5.45
2023-04-03T09:50:24.562Z,3.77
2023-04-03T09:52:57.764Z,5.03
2023-04-03T09:55:31.339Z,5.58
2023-04-03T09:58:08.828Z,5.97
2023-04-03T10:00:44.291Z,4.08
2023-04-03T10:03:36.697Z,6.08
2023-04-03T10:06:25.541Z,7.92
2023-04-03T10:09:05.773Z,6.97
2023-04-03T10:11:39.133Z,6.20
2023-04-03T10:14:16.812Z,8.10
2023-04-03T10:17:06.191Z,6.85
2023-04-03T10:19:49.083Z,5.53
2023-04-03T10:22:49.564Z,5.20
2023-04-03T10:25:33.170Z,4.03
2023-04-03T10:28:17.518Z,4.53
2023-04-03T10:33:46.460Z,4.57
2023-04-03T10:36:52.613Z,3.00
2023-04-03T10:39:36.394Z,4.25
2023-04-03T10:42:18.083Z,0.93
2023-04-03T10:45:17.977Z,3.10
2023-04-03T10:47:56.159Z,1.67
2023-04-03T10:50:55.464Z,1.30
2023-04-03T10:53:34.768Z,3.35
2023-04-03T10:56:30.300Z,3.40
2023-04-03T10:59:25.894Z,5.05
2023-04-03T11:02:30.419Z,3.55
2023-04-03T11:05:19.863Z,8.40
2023-04-03T11:07:56.630Z,3.72
2023-04-03T11:10:49.145Z,2.50
2023-04-03T11:13:45.718Z,1.52
2023-04-03T11:16:28.929Z,0.88
2023-04-03T11:19:24.144Z,2.05
2023-04-03T11:22:17.104Z,2.30
2023-04-03T11:24:57.772Z,3.00
2023-04-03T11:27:36.241Z,1.55
2023-04-03T11:30:13.968Z,3.92
2023-04-03T11:33:03.567Z,1.77
2023-04-03T11:35:38.134Z,1.87
2023-04-03T11:38:16.241Z,1.65
2023-04-03T11:40:51.509Z,4.58
2023-04-03T11:43:30.669Z,1.92
2023-04-03T11:46:08.282Z,3.22
2023-04-03T11:48:54.472Z,2.98
2023-04-03T11:51:40.799Z,2.42
2023-04-03T11:54:45.653Z,3.10
2023-04-03T11:58:03.114Z,1.60
2023-04-03T12:00:54.837Z,2.25
2023-04-03T12:03:32.762Z,2.40
2023-04-03T12:06:15.000Z,12.23
2023-04-03T12:08:53.864Z,6.97
2023-04-03T12:11:34.293Z,9.98
2023-04-03T12:14:14.053Z,7.75
2023-04-03T12:16:49.723Z,4.03
2023-04-03T12:19:43.253Z,3.90
2023-04-03T12:22:21.281Z,1.47
2023-04-03T12:24:56.175Z,2.12
2023-04-03T12:27:38.699Z,1.22
2023-04-03T12:30:22.908Z,1.25
2023-04-03T12:33:41.916Z,1.50
2023-04-03T12:36:28.166Z,1.05
2023-04-03T12:39:23.480Z,5.28
2023-04-03T12:42:21.851Z,13.30
2023-04-03T12:45:02.431Z,9.90
2023-04-03T12:47:39.414Z,4.78
2023-04-03T12:50:28.281Z,2.58
2023-04-03T12:53:08.593Z,2.75
2023-04-03T12:55:41.729Z,2.17
2023-04-03T12:58:27.816Z,2.40
2023-04-03T13:01:15.871Z,2.70
2023-04-03T13:03:53.860Z,4.08
2023-04-03T13:06:34.359Z,6.05
2023-04-03T13:09:09.626Z,4.00
2023-04-03T13:11:44.435Z,5.37
2023-04-03T13:14:26.450Z,13.28
2023-04-03T13:17:07.443Z,10.88
2023-04-03T13:19:43.200Z,4.47
2023-04-03T13:22:39.896Z,4.35
2023-04-03T13:25:16.600Z,3.00
2023-04-03T13:27:50.356Z,3.67
2023-04-03T13:33:02.623Z,4.12
2023-04-03T13:35:43.807Z,2.58
2023-04-03T13:38:25.101Z,6.05
2023-04-03T13:41:05.746Z,7.22
2023-04-03T13:43:40.876Z,4.60
2023-04-03T13:46:18.778Z,3.83
2023-04-03T13:48:54.833Z,4.92
2023-04-03T13:51:31.168Z,3.15
2023-04-03T13:54:09.555Z,4.40
2023-04-03T13:56:46.360Z,2.85
2023-04-03T13:59:27.138Z,2.30
2023-04-03T14:02:25.966Z,2.52
2023-04-03T14:05:03.064Z,2.45
2023-04-03T14:07:36.663Z,2.45
2023-04-03T14:10:10.439Z,2.10
2023-04-03T14:12:43.909Z,3.95
2023-04-03T14:17:57.862Z,3.02
2023-04-03T14:20:31.622Z,3.02
2023-04-03T14:23:04.805Z,3.10
2023-04-03T14:25:38.950Z,2.30
2023-04-03T14:28:22.063Z,3.72
2023-04-03T14:30:55.503Z,3.42
2023-04-03T14:36:06.149Z,2.30
2023-04-03T14:38:40.301Z,2.72
2023-04-03T14:41:19.478Z,2.85
2023-04-03T14:43:54.411Z,3.70
2023-04-03T14:46:45.513Z,3.50
2023-04-03T14:49:24.328Z,3.35
2023-04-03T14:51:59.740Z,3.20
2023-04-03T14:54:33.511Z,2.98
2023-04-03T14:57:08.188Z,3.98
2023-04-03T14:59:41.764Z,2.80
2023-04-03T15:02:40.545Z,2.45
2023-04-03T15:05:15.199Z,3.40
2023-04-03T15:07:53.480Z,4.53
2023-04-03T15:10:31.241Z,4.05
2023-04-03T15:13:05.300Z,4.30
2023-04-03T15:15:40.575Z,4.67
2023-04-03T15:18:18.520Z,4.65
2023-04-03T15:20:51.855Z,5.03
2023-04-03T15:23:29.561Z,4.75
2023-04-03T15:26:02.421Z,5.08
2023-04-03T15:28:43.494Z,5.97
2023-04-03T15:31:17.101Z,5.95
2023-04-03T15:33:51.150Z,7.28
2023-04-03T15:38:58.428Z,6.20
2023-04-03T15:41:31.517Z,6.03
2023-04-03T15:44:04.653Z,6.25
2023-04-03T15:46:37.736Z,9.55
2023-04-03T15:49:10.785Z,6.60
2023-04-03T15:51:44.056Z,8.55
2023-04-03T15:54:18.262Z,10.03
2023-04-03T15:56:51.193Z,7.47
2023-04-03T15:59:24.521Z,9.78
2023-04-03T16:01:58.267Z,8.88
2023-04-03T16:04:31.565Z,9.90
2023-04-03T16:07:06.708Z,10.38
2023-04-03T16:09:40.597Z,8.60
2023-04-03T16:12:13.706Z,9.60
2023-04-03T16:14:48.408Z,9.95
2023-04-03T16:17:21.593Z,11.40
2023-04-03T16:19:55.058Z,10.20
2023-04-03T16:22:29.888Z,10.28
2023-04-03T16:25:03.600Z,13.20
2023-04-03T16:27:37.583Z,14.60
2023-04-03T16:30:11.871Z,14.25
2023-04-03T16:32:45.758Z,12.25
2023-04-03T16:35:18.917Z,13.40
2023-04-03T16:37:52.049Z,9.53
2023-04-03T16:40:24.957Z,15.13
2023-04-03T16:42:57.844Z,17.05
2023-04-03T16:45:31.317Z,13.83
2023-04-03T16:48:04.429Z,10.65
2023-04-03T16:50:38.424Z,10.58
2023-04-03T16:53:11.424Z,11.80
2023-04-03T16:55:44.691Z,12.68
2023-04-03T16:58:18.224Z,14.23
2023-04-03T17:00:52.564Z,14.10
2023-04-03T17:03:27.232Z,16.60
2023-04-03T17:06:00.747Z,18.45
2023-04-03T17:08:33.891Z,14.75
2023-04-03T17:11:06.805Z,14.68
2023-04-03T17:13:41.173Z,14.38
2023-04-03T17:16:17.014Z,15.38
2023-04-03T17:18:51.398Z,16.62
2023-04-03T17:21:25.043Z,18.00
2023-04-03T17:24:04.557Z,17.35
2023-04-03T17:26:38.418Z,16.67
2023-04-03T17:29:12.015Z,16.25
2023-04-03T17:34:17.694Z,21.30
2023-04-03T17:36:51.451Z,17.47
2023-04-03T17:39:24.471Z,18.02
2023-04-03T17:41:57.595Z,15.93
2023-04-03T17:44:30.863Z,17.97
2023-04-03T17:47:03.820Z,18.30
2023-04-03T17:49:37.365Z,15.18
2023-04-03T17:52:10.476Z,18.15
2023-04-03T17:54:44.439Z,18.20
2023-04-03T17:57:17.668Z,17.37
2023-04-03T17:59:51.173Z,15.72
2023-04-03T18:02:24.294Z,16.65
2023-04-03T18:04:57.831Z,16.82
2023-04-03T18:07:31.186Z,18.07
2023-04-03T18:10:05.489Z,18.97
2023-04-03T18:15:12.542Z,17.35
2023-04-03T18:17:47.562Z,18.57
2023-04-03T18:20:21.186Z,18.70
2023-04-03T18:22:54.209Z,19.37
2023-04-03T18:25:27.089Z,18.02
2023-04-03T18:28:01.813Z,17.57
2023-04-03T18:30:35.943Z,19.60
2023-04-03T18:33:09.579Z,28.55
2023-04-03T18:35:43.063Z,21.97
2023-04-03T18:38:16.483Z,20.40
2023-04-03T18:40:50.425Z,21.90
2023-04-03T18:43:23.493Z,19.70
2023-04-03T18:45:56.660Z,21.82
2023-04-03T18:48:31.207Z,21.77
2023-04-03T18:51:06.400Z,22.58
2023-04-03T18:56:14.577Z,23.50
2023-04-03T18:58:48.042Z,24.10
2023-04-03T19:01:21.912Z,26.40
2023-04-03T19:03:56.404Z,22.60
2023-04-03T19:06:29.418Z,24.00
2023-04-03T19:09:05.163Z,23.77
2023-04-03T19:11:38.442Z,23.38
2023-04-03T19:14:16.797Z,23.92
2023-04-03T19:16:47.432Z,29.20
2023-04-03T19:19:21.004Z,30.55
2023-04-03T19:21:55.688Z,30.65
2023-04-03T19:24:29.071Z,24.67
2023-04-03T19:27:02.629Z,27.83
2023-04-03T19:29:36.874Z,31.15
2023-04-03T19:32:12.009Z,27.15
2023-04-03T19:34:44.998Z,27.15
2023-04-03T19:37:19.747Z,29.03
2023-04-03T19:39:53.113Z,27.73
2023-04-03T19:42:28.349Z,31.17
2023-04-03T19:45:02.378Z,24.92
2023-04-03T19:50:09.725Z,33.85
2023-04-03T19:52:42.766Z,23.80
2023-04-03T19:55:15.762Z,23.38
2023-04-03T19:57:49.240Z,25.25
2023-04-03T20:00:22.800Z,23.77
2023-04-03T20:02:56.523Z,28.32
2023-04-03T20:05:29.986Z,25.00
2023-04-03T20:08:03.019Z,21.65
2023-04-03T20:10:37.669Z,21.85
2023-04-03T20:13:14.161Z,23.57
2023-04-03T20:15:47.918Z,22.45
2023-04-03T20:18:22.899Z,25.45
2023-04-03T20:20:59.689Z,22.67
2023-04-03T20:23:34.385Z,24.60
2023-04-03T20:26:15.469Z,26.65
2023-04-03T20:28:44.125Z,26.30
2023-04-03T20:31:18.263Z,26.97
2023-04-03T20:33:52.100Z,22.60
2023-04-03T20:36:26.826Z,28.43
2023-04-03T20:38:59.925Z,28.40
2023-04-03T20:41:35.026Z,31.50
2023-04-03T20:44:10.596Z,30.05
2023-04-03T20:49:18.576Z,31.87
2023-04-03T20:51:52.326Z,27.22
2023-04-03T20:54:25.425Z,32.38
2023-04-03T20:56:59.251Z,30.23
2023-04-03T20:59:34.004Z,33.15
2023-04-03T21:02:07.219Z,29.15
2023-04-03T21:04:46.735Z,29.40
2023-04-03T21:08:16.081Z,29.57
2023-04-03T21:11:44.168Z,26.65
2023-04-03T21:15:14.006Z,30.23
2023-04-03T21:18:12.867Z,27.00
2023-04-03T21:20:47.692Z,30.40
2023-04-03T21:23:21.074Z,29.87
2023-04-03T21:25:53.859Z,30.02
2023-04-03T21:28:27.584Z,27.90
2023-04-03T21:31:00.384Z,24.90
2023-04-03T21:33:33.912Z,28.87
2023-04-03T21:36:07.995Z,28.75
2023-04-03T21:38:40.968Z,27.80
2023-04-03T21:41:13.680Z,25.75
2023-04-03T21:43:48.174Z,28.62
2023-04-03T21:46:21.875Z,28.62
2023-04-03T21:48:58.156Z,28.70
2023-04-03T21:51:32.095Z,29.02
2023-04-03T21:56:37.129Z,29.12
2023-04-03T21:59:10.782Z,28.10
2023-04-03T22:01:44.002Z,29.77
2023-04-03T22:04:17.569Z,30.68
2023-04-03T22:06:51.222Z,28.27
2023-04-03T22:09:24.312Z,25.57
2023-04-03T22:11:57.426Z,28.57
2023-04-03T22:14:31.765Z,25.83
2023-04-03T22:17:06.034Z,23.02
2023-04-03T22:19:39.396Z,27.22
2023-04-03T22:22:13.356Z,27.20
2023-04-03T22:24:46.692Z,24.17
2023-04-03T22:27:19.522Z,27.13
2023-04-03T22:29:52.439Z,26.73
2023-04-03T22:32:25.301Z,23.12
2023-04-03T22:35:00.377Z,24.18
2023-04-03T22:40:06.405Z,21.57
2023-04-03T22:42:40.126Z,23.40
2023-04-03T22:45:13.013Z,23.38
2023-04-03T22:47:48.224Z,21.35
2023-04-03T22:50:21.148Z,18.95
2023-04-03T22:52:54.288Z,19.75
2023-04-03T22:55:28.012Z,18.45
2023-04-03T22:58:01.908Z,18.20
2023-04-03T23:00:35.914Z,25.45
2023-04-03T23:05:43.446Z,16.73
2023-04-03T23:08:17.147Z,19.70
2023-04-03T23:10:51.446Z,21.55
2023-04-03T23:13:25.822Z,20.32
2023-04-03T23:16:02.023Z,23.22
2023-04-03T23:18:37.084Z,18.32
2023-04-03T23:21:10.595Z,19.73
2023-04-03T23:23:44.793Z,21.20
2023-04-03T23:26:17.752Z,18.05
2023-04-03T23:28:51.103Z,21.35
2023-04-03T23:31:25.719Z,22.80
2023-04-03T23:33:58.830Z,21.62
2023-04-03T23:36:32.194Z,22.52
2023-04-03T23:41:38.744Z,21.02
2023-04-03T23:44:11.546Z,21.15
2023-04-03T23:46:44.545Z,19.27
2023-04-03T23:49:17.684Z,22.75
2023-04-03T23:51:50.499Z,21.12
2023-04-03T23:54:23.466Z,19.25
2023-04-03T23:56:56.852Z,20.00
2023-04-03T23:59:31.283Z,21.20
